createdAt,value
2023-01-13T00:01:23.404Z,3.10
2023-01-13T00:04:26.697Z,3.00
2023-01-13T00:07:29.852Z,3.00
2023-01-13T00:10:34.658Z,3.00
2023-01-13T00:13:38.595Z,2.90
2023-01-13T00:16:41.776Z,3.20
2023-01-13T00:19:45.061Z,3.60
2023-01-13T00:22:48.269Z,2.40
2023-01-13T00:25:51.411Z,2.50
2023-01-13T00:28:59.248Z,2.70
2023-01-13T00:32:02.345Z,2.40
2023-01-13T00:35:06.173Z,3.00
2023-01-13T00:38:09.312Z,2.30
2023-01-13T00:41:14.465Z,2.20
2023-01-13T00:44:17.752Z,2.00
2023-01-13T00:47:20.871Z,2.20
2023-01-13T00:50:24.083Z,2.60
2023-01-13T00:53:28.751Z,2.30
2023-01-13T00:56:40.148Z,2.20
2023-01-13T00:59:44.085Z,2.10
2023-01-13T01:02:47.542Z,2.00
2023-01-13T01:05:50.768Z,2.20
2023-01-13T01:08:55.257Z,1.90
2023-01-13T01:11:59.959Z,2.10
2023-01-13T01:15:06.074Z,1.80
2023-01-13T01:18:09.393Z,2.30
2023-01-13T01:21:14.179Z,1.90
2023-01-13T01:24:17.443Z,2.00
2023-01-13T01:27:20.561Z,1.70
2023-01-13T01:30:23.734Z,2.10
2023-01-13T01:33:27.038Z,1.90
2023-01-13T01:36:30.575Z,1.80
2023-01-13T01:39:33.784Z,2.50
2023-01-13T01:42:55.558Z,2.00
2023-01-13T01:45:58.740Z,2.30
2023-01-13T01:49:14.046Z,2.20
2023-01-13T01:52:39.259Z,2.70
2023-01-13T01:55:42.671Z,2.30
2023-01-13T01:58:51.195Z,3.00
2023-01-13T02:01:54.587Z,2.70
2023-01-13T02:04:59.318Z,2.10
2023-01-13T02:08:03.733Z,2.60
2023-01-13T02:11:27.338Z,3.00
2023-01-13T02:14:31.839Z,2.90
2023-01-13T02:18:02.377Z,3.60
2023-01-13T02:21:17.428Z,3.70
2023-01-13T02:24:55.925Z,3.50
2023-01-13T02:28:08.118Z,3.00
2023-01-13T02:31:33.980Z,2.70
2023-01-13T02:34:42.577Z,4.20
2023-01-13T02:37:46.920Z,2.70
2023-01-13T02:41:25.982Z,2.70
2023-01-13T02:44:36.455Z,2.80
2023-01-13T02:47:41.987Z,3.10
2023-01-13T02:50:51.063Z,3.20
2023-01-13T02:54:01.158Z,2.70
2023-01-13T02:57:08.648Z,2.80
2023-01-13T03:00:13.508Z,2.70
2023-01-13T03:03:16.579Z,2.70
2023-01-13T03:06:46.207Z,2.70
2023-01-13T03:10:08.501Z,2.70
2023-01-13T03:13:36.793Z,2.40
2023-01-13T03:17:18.568Z,3.00
2023-01-13T03:20:32.528Z,2.90
2023-01-13T03:23:50.829Z,2.30
2023-01-13T03:26:59.602Z,2.60
2023-01-13T03:30:17.162Z,3.20
2023-01-13T03:33:33.364Z,2.90
2023-01-13T03:36:40.507Z,2.50
2023-01-13T03:39:50.419Z,2.70
2023-01-13T03:44:01.561Z,2.80
2023-01-13T03:47:07.591Z,3.00
2023-01-13T03:50:19.687Z,3.30
2023-01-13T03:53:53.009Z,3.40
2023-01-13T03:57:05.197Z,3.30
2023-01-13T04:00:12.656Z,3.50
2023-01-13T04:03:25.399Z,3.20
2023-01-13T04:07:00.570Z,3.90
2023-01-13T04:10:07.753Z,3.40
2023-01-13T04:13:14.491Z,4.40
2023-01-13T04:16:17.833Z,4.30
2023-01-13T04:19:21.647Z,3.70
2023-01-13T04:22:24.761Z,4.00
2023-01-13T04:25:27.833Z,3.90
2023-01-13T04:28:31.118Z,3.70
2023-01-13T04:31:34.249Z,3.70
2023-01-13T04:34:37.410Z,3.90
2023-01-13T04:37:40.506Z,3.60
2023-01-13T04:40:44.177Z,4.10
2023-01-13T04:43:47.263Z,3.80
2023-01-13T04:46:50.600Z,3.30
2023-01-13T04:49:53.731Z,4.10
2023-01-13T04:52:57.185Z,3.60
2023-01-13T04:56:00.364Z,3.50
2023-01-13T04:59:03.571Z,3.70
2023-01-13T05:02:09.088Z,3.50
2023-01-13T05:05:12.368Z,3.40
2023-01-13T05:08:15.598Z,3.50
2023-01-13T05:11:37.578Z,3.90
2023-01-13T05:14:58.899Z,3.30
2023-01-13T05:18:08.076Z,3.40
2023-01-13T05:21:31.319Z,2.60
2023-01-13T05:24:52.965Z,3.50
2023-01-13T05:27:58.210Z,3.30
2023-01-13T05:31:01.677Z,3.50
2023-01-13T05:34:04.820Z,3.40
2023-01-13T05:37:08.387Z,3.40
2023-01-13T05:40:32.572Z,3.60
2023-01-13T05:43:35.781Z,3.70
2023-01-13T05:46:38.893Z,3.70
2023-01-13T05:49:42.326Z,3.30
2023-01-13T05:52:45.508Z,3.50
2023-01-13T05:55:49.766Z,4.10
2023-01-13T05:58:52.872Z,4.70
2023-01-13T06:01:55.983Z,3.90
2023-01-13T06:04:59.141Z,3.80
2023-01-13T06:08:04.272Z,4.20
2023-01-13T06:11:07.837Z,3.90
2023-01-13T06:14:11.030Z,4.40
2023-01-13T06:17:16.304Z,3.50
2023-01-13T06:20:20.009Z,4.10
2023-01-13T06:23:24.052Z,3.60
2023-01-13T06:26:29.131Z,3.20
2023-01-13T06:29:32.313Z,3.50
2023-01-13T06:32:40.509Z,4.20
2023-01-13T06:35:49.620Z,3.60
2023-01-13T06:38:57.893Z,3.50
2023-01-13T06:42:20.161Z,4.30
2023-01-13T06:48:33.210Z,3.90
2023-01-13T06:51:37.043Z,4.60
2023-01-13T06:54:40.194Z,3.50
2023-01-13T06:57:58.101Z,3.90
2023-01-13T07:01:01.532Z,3.60
2023-01-13T07:04:04.973Z,3.10
2023-01-13T07:07:08.388Z,3.60
2023-01-13T07:10:22.239Z,3.50
2023-01-13T07:13:43.832Z,6.30
2023-01-13T07:16:47.056Z,4.00
2023-01-13T07:19:50.687Z,4.40
2023-01-13T07:22:55.015Z,4.00
2023-01-13T07:25:59.710Z,4.00
2023-01-13T07:29:08.887Z,4.20
2023-01-13T07:32:17.262Z,4.50
2023-01-13T07:35:23.170Z,4.20
2023-01-13T07:38:27.211Z,4.20
2023-01-13T07:41:48.737Z,6.10
2023-01-13T07:44:51.967Z,4.20
2023-01-13T07:47:55.214Z,3.60
2023-01-13T07:51:06.136Z,4.60
2023-01-13T07:54:09.319Z,3.90
2023-01-13T07:57:12.416Z,4.20
2023-01-13T08:00:18.242Z,4.60
2023-01-13T08:03:23.117Z,5.00
2023-01-13T08:06:27.046Z,3.80
2023-01-13T08:09:37.075Z,4.20
2023-01-13T08:12:58.613Z,3.80
2023-01-13T08:16:14.597Z,4.60
2023-01-13T08:19:17.825Z,4.40
2023-01-13T08:22:21.149Z,5.60
2023-01-13T08:25:26.609Z,5.00
2023-01-13T08:28:30.365Z,4.30
2023-01-13T08:31:33.665Z,4.50
2023-01-13T08:34:43.247Z,4.30
2023-01-13T08:37:47.661Z,3.90
2023-01-13T08:40:51.068Z,3.70
2023-01-13T08:44:04.784Z,3.70
2023-01-13T08:47:08.217Z,4.00
2023-01-13T08:50:12.321Z,3.50
2023-01-13T08:53:15.722Z,3.70
2023-01-13T08:56:23.559Z,3.30
2023-01-13T08:59:28.515Z,3.80
2023-01-13T09:02:52.384Z,3.50
2023-01-13T09:06:20.134Z,3.40
2023-01-13T09:09:31.404Z,3.90
2023-01-13T09:13:07.276Z,3.30
2023-01-13T09:16:20.459Z,4.00
2023-01-13T09:19:23.848Z,3.50
2023-01-13T09:22:27.682Z,3.60
2023-01-13T09:25:36.787Z,3.90
2023-01-13T09:28:39.997Z,4.70
2023-01-13T09:31:44.323Z,4.00
2023-01-13T09:35:06.721Z,3.70
2023-01-13T09:38:10.065Z,4.10
2023-01-13T09:41:53.351Z,3.90
2023-01-13T09:45:19.860Z,4.30
2023-01-13T09:48:52.262Z,3.90
2023-01-13T09:52:27.100Z,3.80
2023-01-13T09:55:37.013Z,3.30
2023-01-13T09:58:41.605Z,3.80
2023-01-13T10:02:00.405Z,3.80
2023-01-13T10:05:11.964Z,3.90
2023-01-13T10:08:29.840Z,3.80
2023-01-13T10:11:59.415Z,4.40
2023-01-13T10:15:11.403Z,3.10
2023-01-13T10:18:44.969Z,3.80
2023-01-13T10:22:14.794Z,3.80
2023-01-13T10:25:42.273Z,3.60
2023-01-13T10:28:56.973Z,3.20
2023-01-13T10:32:03.680Z,3.20
2023-01-13T10:36:03.869Z,3.30
2023-01-13T10:39:18.408Z,3.30
2023-01-13T10:42:24.804Z,3.20
2023-01-13T10:45:29.096Z,2.80
2023-01-13T10:49:03.672Z,3.10
2023-01-13T10:52:26.974Z,3.20
2023-01-13T10:55:40.428Z,3.60
2023-01-13T10:58:44.706Z,3.70
2023-01-13T11:02:33.748Z,3.50
2023-01-13T11:05:37.231Z,3.70
2023-01-13T11:08:46.351Z,3.30
2023-01-13T11:11:56.007Z,3.80
2023-01-13T11:15:39.345Z,4.10
2023-01-13T11:19:40.487Z,3.70
2023-01-13T11:23:16.548Z,3.60
2023-01-13T11:27:29.431Z,3.30
2023-01-13T11:30:55.997Z,3.40
2023-01-13T11:34:13.185Z,4.70
2023-01-13T11:37:23.805Z,3.60
2023-01-13T11:40:37.569Z,3.60
2023-01-13T11:44:20.341Z,4.10
2023-01-13T11:47:28.820Z,4.10
2023-01-13T11:50:39.833Z,4.30
2023-01-13T11:54:22.572Z,4.40
2023-01-13T11:57:35.058Z,7.60
2023-01-13T12:00:56.579Z,4.10
2023-01-13T12:04:18.118Z,2.80
2023-01-13T12:07:27.544Z,3.40
2023-01-13T12:10:53.901Z,3.50
2023-01-13T12:14:29.696Z,4.00
2023-01-13T12:21:32.380Z,2.80
2023-01-13T12:24:52.146Z,3.30
2023-01-13T12:28:10.668Z,3.50
2023-01-13T12:31:19.880Z,3.50
2023-01-13T12:34:48.536Z,3.80
2023-01-13T12:38:05.754Z,4.30
2023-01-13T12:41:27.594Z,4.20
2023-01-13T12:44:32.148Z,4.40
2023-01-13T12:57:27.087Z,4.30
2023-01-13T13:00:41.067Z,7.60
2023-01-13T13:13:49.372Z,4.40
2023-01-13T13:17:01.650Z,4.40
2023-01-13T13:24:15.386Z,5.00
2023-01-13T13:27:38.563Z,4.40
2023-01-13T13:30:51.632Z,5.10
2023-01-13T13:34:06.818Z,5.90
2023-01-13T13:38:03.848Z,5.50
2023-01-13T13:42:12.184Z,5.40
2023-01-13T13:49:16.508Z,12.20
2023-01-13T13:52:41.766Z,7.30
2023-01-13T13:56:00.224Z,7.10
2023-01-13T13:59:04.492Z,7.10
2023-01-13T14:02:30.983Z,6.50
2023-01-13T14:06:22.138Z,6.70
2023-01-13T14:09:45.222Z,5.30
2023-01-13T14:12:54.618Z,5.60
2023-01-13T14:19:53.183Z,5.90
2023-01-13T14:23:01.751Z,5.80
2023-01-13T14:26:12.997Z,6.00
2023-01-13T14:29:30.839Z,6.10
2023-01-13T14:32:38.223Z,5.50
2023-01-13T14:36:16.461Z,6.00
2023-01-13T14:39:45.342Z,5.10
2023-01-13T14:43:00.452Z,5.80
2023-01-13T14:46:09.702Z,5.90
2023-01-13T14:49:24.018Z,6.00
2023-01-13T14:52:51.462Z,5.40
2023-01-13T14:55:54.795Z,6.60
2023-01-13T14:59:45.639Z,6.30
2023-01-13T15:02:58.411Z,6.20
2023-01-13T15:06:28.559Z,5.90
2023-01-13T15:09:45.897Z,4.90
2023-01-13T15:13:07.246Z,5.10
2023-01-13T15:16:42.320Z,5.40
2023-01-13T15:19:45.843Z,5.50
2023-01-13T15:22:59.750Z,4.80
2023-01-13T15:26:39.777Z,5.90
2023-01-13T15:33:34.661Z,6.50
2023-01-13T15:37:30.475Z,5.90
2023-01-13T15:40:33.733Z,6.50
2023-01-13T15:45:20.916Z,5.90
2023-01-13T15:59:24.103Z,5.30
2023-01-13T16:02:27.739Z,5.70
2023-01-13T16:05:37.563Z,6.30
2023-01-13T16:08:40.907Z,5.50
2023-01-13T16:11:51.580Z,6.50
2023-01-13T16:14:55.115Z,8.50
2023-01-13T16:18:04.249Z,7.30
2023-01-13T16:24:32.328Z,5.70
2023-01-13T16:27:35.694Z,6.80
2023-01-13T16:30:57.551Z,6.90
2023-01-13T16:34:02.551Z,6.00
2023-01-13T16:37:40.739Z,7.30
2023-01-13T16:40:44.156Z,6.30
2023-01-13T16:44:23.958Z,7.10
2023-01-13T16:47:27.307Z,5.60
2023-01-13T16:50:56.471Z,6.40
2023-01-13T16:53:59.839Z,7.10
2023-01-13T16:57:03.713Z,7.60
2023-01-13T17:00:07.985Z,6.90
2023-01-13T17:03:12.222Z,7.40
2023-01-13T17:07:00.467Z,6.80
2023-01-13T17:10:36.170Z,6.00
2023-01-13T17:13:41.772Z,6.50
2023-01-13T17:16:49.608Z,6.40
2023-01-13T17:19:53.395Z,7.80
2023-01-13T17:22:58.697Z,7.90
2023-01-13T17:26:02.200Z,7.40
2023-01-13T17:33:58.138Z,7.20
2023-01-13T17:40:26.601Z,7.80
2023-01-13T17:43:37.290Z,8.50
2023-01-13T17:46:42.516Z,7.40
2023-01-13T17:50:19.731Z,8.00
2023-01-13T17:53:27.229Z,8.40
2023-01-13T17:56:33.764Z,8.00
2023-01-13T17:59:46.370Z,7.70
2023-01-13T18:02:56.556Z,7.70
2023-01-13T18:06:08.007Z,8.10
2023-01-13T18:09:11.733Z,9.00
2023-01-13T18:12:15.038Z,8.60
2023-01-13T18:15:18.127Z,8.60
2023-01-13T18:18:21.300Z,7.50
2023-01-13T18:21:45.319Z,7.60
2023-01-13T18:25:06.873Z,7.60
2023-01-13T18:28:10.017Z,7.40
2023-01-13T18:31:13.268Z,7.10
2023-01-13T18:34:16.382Z,9.00
2023-01-13T18:37:19.553Z,7.80
2023-01-13T18:40:22.782Z,8.10
2023-01-13T18:43:26.249Z,7.90
2023-01-13T18:46:29.453Z,8.90
2023-01-13T18:49:32.733Z,9.00
2023-01-13T18:52:36.441Z,8.10
2023-01-13T18:55:39.585Z,9.10
2023-01-13T18:58:51.739Z,9.60
2023-01-13T19:04:59.080Z,14.60
2023-01-13T19:08:02.939Z,10.70
2023-01-13T19:11:07.383Z,9.30
2023-01-13T19:14:10.486Z,9.60
2023-01-13T19:17:15.300Z,9.50
2023-01-13T19:20:19.929Z,10.30
2023-01-13T19:23:23.087Z,9.40
2023-01-13T19:26:26.124Z,8.90
2023-01-13T19:29:33.174Z,9.30
2023-01-13T19:32:37.033Z,10.20
2023-01-13T19:35:40.525Z,9.00
2023-01-13T19:38:43.699Z,8.80
2023-01-13T19:42:05.600Z,10.10
2023-01-13T19:45:29.371Z,10.10
2023-01-13T19:48:32.872Z,10.30
2023-01-13T19:51:35.951Z,10.10
2023-01-13T19:54:39.113Z,10.70
2023-01-13T19:57:43.490Z,10.60
2023-01-13T20:00:48.432Z,11.50
2023-01-13T20:03:51.533Z,11.90
2023-01-13T20:06:55.454Z,11.70
2023-01-13T20:09:58.624Z,12.70
2023-01-13T20:13:01.920Z,10.50
2023-01-13T20:16:05.501Z,14.30
2023-01-13T20:19:08.738Z,13.30
2023-01-13T20:22:12.273Z,13.50
2023-01-13T20:25:17.517Z,12.40
2023-01-13T20:28:20.751Z,11.50
2023-01-13T20:31:24.014Z,11.80
2023-01-13T20:34:27.568Z,12.40
2023-01-13T20:37:31.043Z,10.90
2023-01-13T20:40:34.216Z,16.80
2023-01-13T20:43:37.347Z,11.80
2023-01-13T20:46:44.736Z,11.30
2023-01-13T20:49:48.023Z,11.40
2023-01-13T20:52:52.623Z,10.60
2023-01-13T20:55:55.921Z,10.40
2023-01-13T20:58:59.156Z,10.10
2023-01-13T21:02:02.966Z,10.10
2023-01-13T21:05:06.461Z,9.20
2023-01-13T21:08:09.518Z,10.20
2023-01-13T21:11:14.960Z,10.30
2023-01-13T21:14:42.057Z,10.40
2023-01-13T21:18:04.807Z,9.50
2023-01-13T21:21:13.951Z,9.80
2023-01-13T21:24:17.079Z,9.60
2023-01-13T21:27:20.348Z,11.30
2023-01-13T21:30:23.446Z,10.10
2023-01-13T21:33:26.788Z,9.30
2023-01-13T21:36:29.904Z,10.10
2023-01-13T21:39:35.619Z,10.30
2023-01-13T21:42:57.351Z,9.70
2023-01-13T21:46:19.177Z,10.10
2023-01-13T21:49:22.326Z,9.20
2023-01-13T21:52:26.166Z,9.30
2023-01-13T21:55:29.917Z,10.60
2023-01-13T21:58:33.174Z,11.90
2023-01-13T22:01:36.364Z,10.20
2023-01-13T22:05:00.858Z,10.80
2023-01-13T22:08:05.140Z,10.20
2023-01-13T22:11:08.385Z,9.70
2023-01-13T22:14:13.851Z,10.90
2023-01-13T22:17:17.931Z,10.70
2023-01-13T22:20:22.769Z,10.40
2023-01-13T22:23:26.143Z,10.80
2023-01-13T22:26:29.317Z,10.70
2023-01-13T22:29:32.377Z,10.30
2023-01-13T22:32:38.011Z,9.60
2023-01-13T22:35:41.111Z,8.90
2023-01-13T22:38:44.432Z,10.00
2023-01-13T22:41:47.498Z,9.50
2023-01-13T22:44:50.660Z,9.30
2023-01-13T22:47:53.795Z,9.50
2023-01-13T22:50:56.921Z,10.20
2023-01-13T22:54:00.051Z,8.80
2023-01-13T22:57:03.191Z,8.70
2023-01-13T23:00:06.814Z,8.90
2023-01-13T23:03:09.951Z,8.90
2023-01-13T23:06:13.499Z,9.50
2023-01-13T23:09:16.638Z,9.50
2023-01-13T23:12:19.735Z,8.80
2023-01-13T23:15:22.858Z,8.10
2023-01-13T23:18:26.429Z,8.40
2023-01-13T23:21:32.455Z,9.70
2023-01-13T23:24:35.638Z,9.10
2023-01-13T23:27:38.713Z,9.60
2023-01-13T23:30:41.810Z,9.00
2023-01-13T23:33:45.274Z,8.50
2023-01-13T23:36:48.388Z,8.60
2023-01-13T23:39:51.571Z,8.50
2023-01-13T23:42:54.659Z,9.40
2023-01-13T23:46:07.546Z,9.60
2023-01-13T23:49:10.741Z,8.70
2023-01-13T23:52:13.912Z,8.80
2023-01-13T23:55:16.976Z,9.00
2023-01-13T23:58:20.449Z,9.00
